Time;durP1;ratioP1;P1;durP2;ratioP2;P2;SDS_P1;SDS_P2;PMS_P1;PMS_P2;Temp;Humidity;BMP_temperature;BMP_pressure;BME280_temperature;BME280_humidity;BME280_pressure;Samples;Min_cycle;Max_cycle;Signal;HPM_P1;HPM_P2
2023/02/05 00:00:15;;;;;;;17.05;9.88;;;10.70;99.90;;;;;;5037698;28;20191;-75
2023/02/05 00:02:41;;;;;;;18.20;8.90;;;10.70;99.90;;;;;;5051657;28;20208;-75
2023/02/05 00:05:07;;;;;;;13.83;8.13;;;10.60;99.90;;;;;;5053688;28;20209;-75
2023/02/05 00:07:33;;;;;;;15.67;9.27;;;10.60;99.90;;;;;;5055625;28;20193;-75
2023/02/05 00:09:58;;;;;;;19.47;9.10;;;10.60;99.90;;;;;;5054518;28;20663;-75
2023/02/05 00:12:24;;;;;;;17.70;8.53;;;10.50;99.90;;;;;;5058765;28;20169;-75
2023/02/05 00:14:49;;;;;;;17.97;10.40;;;10.50;99.90;;;;;;5061762;28;20800;-76
2023/02/05 00:17:15;;;;;;;19.50;10.93;;;10.50;99.90;;;;;;5061489;28;20274;-76
2023/02/05 00:19:41;;;;;;;14.80;8.20;;;10.50;99.90;;;;;;5059951;28;20239;-75
2023/02/05 00:22:07;;;;;;;16.90;9.10;;;10.50;99.90;;;;;;5058106;28;20191;-75
2023/02/05 00:24:32;;;;;;;21.37;10.07;;;10.50;99.90;;;;;;5052789;28;20230;-75
2023/02/05 00:26:58;;;;;;;15.43;8.60;;;10.50;99.90;;;;;;5051073;28;20196;-75
2023/02/05 00:29:24;;;;;;;15.87;9.00;;;10.40;99.90;;;;;;5052002;28;20224;-75
2023/02/05 00:31:50;;;;;;;15.30;7.47;;;10.40;99.90;;;;;;5053088;28;20202;-75
2023/02/05 00:34:16;;;;;;;14.07;6.43;;;10.40;99.90;;;;;;5051228;28;20268;-75
2023/02/05 00:36:41;;;;;;;14.87;7.80;;;10.40;99.90;;;;;;5051293;28;20220;-75
2023/02/05 00:39:10;;;;;;;14.43;7.57;;;10.40;99.90;;;;;;5050756;28;20275;-76
2023/02/05 00:41:36;;;;;;;14.57;8.60;;;10.30;99.90;;;;;;5050651;28;20173;-75
2023/02/05 00:44:05;;;;;;;17.75;7.32;;;10.30;99.90;;;;;;5052731;28;20169;-76
2023/02/05 00:46:30;;;;;;;19.20;11.10;;;10.30;99.90;;;;;;5039517;28;20203;-76
2023/02/05 00:48:56;;;;;;;21.80;12.20;;;10.30;99.90;;;;;;5060075;28;20696;-76
2023/02/05 00:51:22;;;;;;;37.40;19.10;;;10.30;99.90;;;;;;5059765;28;20188;-76
2023/02/05 00:53:48;;;;;;;29.13;18.47;;;10.20;99.90;;;;;;5058229;28;20662;-76
2023/02/05 00:56:13;;;;;;;30.67;19.77;;;10.20;99.90;;;;;;5055345;28;20205;-76
2023/02/05 00:58:39;;;;;;;38.27;20.90;;;10.20;99.90;;;;;;5050986;28;20566;-76
2023/02/05 01:01:05;;;;;;;32.50;20.83;;;10.10;99.90;;;;;;5051200;28;20226;-76
2023/02/05 01:03:31;;;;;;;35.90;19.00;;;10.10;99.90;;;;;;5052348;28;20244;-75
2023/02/05 01:05:58;;;;;;;35.27;18.50;;;10.10;99.90;;;;;;5051124;28;20276;-76
2023/02/05 01:08:24;;;;;;;24.30;17.25;;;10.10;99.90;;;;;;5034466;28;20584;-75
2023/02/05 01:10:51;;;;;;;22.13;14.30;;;10.10;99.90;;;;;;5050694;28;20177;-76
2023/02/05 01:13:17;;;;;;;24.50;15.43;;;10.00;99.90;;;;;;5038598;28;20279;-76
2023/02/05 01:15:43;;;;;;;20.90;12.35;;;10.00;99.90;;;;;;5054245;28;20215;-76
2023/02/05 01:18:10;;;;;;;17.50;9.95;;;10.00;99.90;;;;;;5054228;28;20283;-76
2023/02/05 01:20:37;;;;;;;18.05;10.43;;;10.00;99.90;;;;;;5055825;28;20177;-76
2023/02/05 01:23:03;;;;;;;13.32;8.68;;;10.00;99.90;;;;;;5056008;28;20161;-76
2023/02/05 01:25:29;;;;;;;20.38;9.15;;;10.00;99.90;;;;;;5057257;28;20173;-76
2023/02/05 01:27:55;;;;;;;13.17;7.60;;;10.00;99.90;;;;;;5058598;28;20180;-77
2023/02/05 01:30:20;;;;;;;18.57;8.37;;;10.00;99.90;;;;;;5061080;28;20199;-77
2023/02/05 01:32:47;;;;;;;14.57;7.97;;;10.00;99.90;;;;;;5061454;28;20173;-76
2023/02/05 01:35:13;;;;;;;17.10;8.20;;;10.00;99.90;;;;;;5045451;28;20195;-76
2023/02/05 01:37:38;;;;;;;20.57;8.27;;;10.00;99.90;;;;;;5062645;28;20193;-76
2023/02/05 01:40:04;;;;;;;14.20;8.17;;;10.00;99.90;;;;;;5061876;28;20696;-76
2023/02/05 01:42:31;;;;;;;16.73;6.37;;;10.00;99.90;;;;;;5058838;28;20165;-76
2023/02/05 01:45:31;;;;;;;16.52;7.25;;;10.00;99.90;;;;;;5065034;28;20671;-76
2023/02/05 01:47:59;;;;;;;14.98;7.47;;;10.00;99.90;;;;;;5024364;28;20699;-75
2023/02/05 01:50:36;;;;;;;13.95;6.55;;;10.00;99.90;;;;;;5055093;28;20169;-75
2023/02/05 01:53:07;;;;;;;13.93;7.05;;;10.00;99.90;;;;;;5057527;28;20188;-75
2023/02/05 01:55:36;;;;;;;13.32;6.68;;;10.00;99.90;;;;;;5039773;28;20172;-75
2023/02/05 01:58:02;;;;;;;14.98;6.03;;;10.00;99.90;;;;;;5055216;28;20201;-76
2023/02/05 02:00:28;;;;;;;13.57;6.63;;;10.00;99.90;;;;;;5039243;28;20995;-75
2023/02/05 02:02:54;;;;;;;13.20;6.80;;;9.90;99.90;;;;;;5051265;28;20201;-76
2023/02/05 02:05:19;;;;;;;17.97;7.37;;;10.00;99.90;;;;;;5054336;28;20208;-76
2023/02/05 02:07:45;;;;;;;15.57;6.90;;;9.90;99.90;;;;;;5056140;28;20201;-76
2023/02/05 02:10:14;;;;;;;13.17;7.47;;;9.90;99.90;;;;;;5041497;28;20584;-76
2023/02/05 02:12:42;;;;;;;14.50;7.15;;;9.90;99.90;;;;;;5026695;28;20938;-76
2023/02/05 02:15:28;;;;;;;17.35;8.27;;;9.90;99.90;;;;;;5053238;28;20196;-75
2023/02/05 02:18:24;;;;;;;17.30;7.50;;;9.80;99.90;;;;;;5054772;28;20228;-76
2023/02/05 02:20:51;;;;;;;13.73;8.20;;;9.80;99.90;;;;;;5052476;28;20225;-76
2023/02/05 02:23:49;;;;;;;14.43;7.43;;;9.70;99.90;;;;;;5035983;28;20188;-76
2023/02/05 02:26:46;;;;;;;14.55;8.65;;;9.70;99.90;;;;;;5052536;28;20292;-76
2023/02/05 02:29:17;;;;;;;17.33;8.90;;;9.70;99.90;;;;;;5036830;28;20215;-77
2023/02/05 02:31:58;;;;;;;18.92;11.00;;;9.60;99.90;;;;;;5052270;28;20219;-77
2023/02/05 02:34:40;;;;;;;15.02;8.95;;;9.60;99.90;;;;;;5035450;28;20192;-76
2023/02/05 02:37:08;;;;;;;17.00;9.52;;;9.50;99.90;;;;;;5051905;28;20193;-77
2023/02/05 02:39:43;;;;;;;23.00;11.48;;;9.50;99.90;;;;;;5052176;28;20220;-77
2023/02/05 02:42:42;;;;;;;17.38;10.57;;;9.60;99.90;;;;;;5052134;28;20572;-76
2023/02/05 02:45:11;;;;;;;17.42;9.80;;;9.50;99.90;;;;;;5041119;28;20207;-77
2023/02/05 02:47:43;;;;;;;14.85;9.45;;;9.50;99.90;;;;;;5051997;28;20232;-76
2023/02/05 02:50:15;;;;;;;13.38;8.95;;;9.50;99.90;;;;;;5052189;28;20180;-77
2023/02/05 02:52:45;;;;;;;17.33;10.35;;;9.50;99.90;;;;;;5051838;28;20192;-76
2023/02/05 02:55:14;;;;;;;14.05;9.25;;;9.50;99.90;;;;;;5053476;28;20169;-76
2023/02/05 02:57:47;;;;;;;19.73;10.35;;;9.50;99.90;;;;;;5034908;28;20259;-76
2023/02/05 03:00:22;;;;;;;17.05;9.63;;;9.50;99.90;;;;;;5035353;28;20247;-77
2023/02/05 03:02:51;;;;;;;20.33;8.93;;;9.50;99.90;;;;;;5035049;28;20160;-79
2023/02/05 03:05:20;;;;;;;17.67;9.43;;;9.50;99.90;;;;;;5036782;28;20180;-77
2023/02/05 03:07:59;;;;;;;22.23;9.45;;;9.60;99.90;;;;;;5034526;28;20204;-77
2023/02/05 03:10:35;;;;;;;21.42;11.98;;;9.60;99.90;;;;;;5052049;28;20264;-77
2023/02/05 03:13:01;;;;;;;17.92;10.30;;;9.60;99.90;;;;;;5051102;28;20176;-77
2023/02/05 03:15:28;;;;;;;18.50;9.73;;;9.60;99.90;;;;;;5051850;28;20280;-78
2023/02/05 03:17:55;;;;;;;19.05;10.07;;;9.60;99.90;;;;;;5034472;28;20847;-77
2023/02/05 03:20:25;;;;;;;19.48;9.60;;;9.60;99.90;;;;;;5051364;28;20533;-77
2023/02/05 03:22:52;;;;;;;12.68;8.73;;;9.60;99.90;;;;;;5051043;28;20280;-77
2023/02/05 03:25:20;;;;;;;17.38;9.30;;;9.60;99.90;;;;;;5051568;28;20626;-78
2023/02/05 03:27:49;;;;;;;20.85;9.05;;;9.60;99.90;;;;;;5050422;28;20591;-77
2023/02/05 03:30:15;;;;;;;14.25;8.07;;;9.60;99.90;;;;;;5034763;28;20913;-77
2023/02/05 03:33:04;;;;;;;16.45;9.18;;;9.60;99.90;;;;;;5051972;28;20571;-78
2023/02/05 03:35:49;;;;;;;14.98;7.55;;;9.60;99.90;;;;;;5051405;28;20177;-77
2023/02/05 03:38:27;;;;;;;18.00;8.82;;;9.60;99.90;;;;;;5017273;28;20204;-78
2023/02/05 03:41:01;;;;;;;16.45;9.30;;;9.60;99.90;;;;;;5034431;28;20184;-78
2023/02/05 03:43:31;;;;;;;18.55;9.00;;;9.60;99.90;;;;;;5035498;28;20223;-77
2023/02/05 03:46:07;;;;;;;17.65;8.60;;;9.70;99.90;;;;;;5034409;28;20185;-77
2023/02/05 03:49:01;;;;;;;14.82;7.80;;;9.60;99.90;;;;;;5050277;28;20180;-77
2023/02/05 03:51:49;;;;;;;14.65;7.53;;;9.70;99.90;;;;;;5034502;28;20180;-77
2023/02/05 03:54:54;;;;;;;16.83;9.43;;;9.70;99.90;;;;;;5033966;28;20181;-77
2023/02/05 03:57:43;;;;;;;13.70;8.93;;;9.70;99.90;;;;;;5050113;28;20203;-76
2023/02/05 04:00:11;;;;;;;13.15;7.53;;;9.70;99.90;;;;;;5034132;28;20177;-77
2023/02/05 04:02:42;;;;;;;16.45;10.57;;;9.70;99.90;;;;;;5051602;28;20234;-77
2023/02/05 04:05:11;;;;;;;18.88;9.18;;;9.70;99.90;;;;;;5018142;28;20256;-77
2023/02/05 04:07:39;;;;;;;18.13;10.25;;;9.70;99.90;;;;;;5033461;28;20184;-77
2023/02/05 04:10:07;;;;;;;16.95;9.20;;;9.70;99.90;;;;;;5033504;28;20189;-77
2023/02/05 04:12:34;;;;;;;16.70;9.90;;;9.70;99.90;;;;;;5050264;28;20256;-78
2023/02/05 04:15:00;;;;;;;13.30;8.27;;;9.60;99.90;;;;;;5017252;28;20275;-77
2023/02/05 04:17:26;;;;;;;19.08;10.10;;;9.70;99.90;;;;;;5033544;28;20562;-77
2023/02/05 04:19:52;;;;;;;19.07;9.37;;;9.70;99.90;;;;;;5051410;28;20171;-77
2023/02/05 04:22:19;;;;;;;12.15;9.00;;;9.70;99.90;;;;;;5033669;28;21224;-77
2023/02/05 04:24:46;;;;;;;16.45;8.45;;;9.70;99.90;;;;;;5033530;28;20184;-77
2023/02/05 04:27:12;;;;;;;16.30;9.47;;;9.70;99.90;;;;;;5032967;28;20193;-77
2023/02/05 04:29:38;;;;;;;13.65;9.90;;;9.80;99.90;;;;;;5050585;28;20555;-77
2023/02/05 04:32:05;;;;;;;16.08;9.77;;;9.70;99.90;;;;;;5048970;28;20185;-77
2023/02/05 04:34:30;;;;;;;18.07;10.37;;;9.80;99.90;;;;;;5050427;28;20269;-78
2023/02/05 04:36:58;;;;;;;16.10;9.68;;;9.80;99.90;;;;;;5032699;28;20727;-78
2023/02/05 04:39:26;;;;;;;18.65;10.32;;;9.80;99.90;;;;;;5050131;28;20216;-78
2023/02/05 04:41:51;;;;;;;13.03;8.60;;;9.80;99.90;;;;;;5049615;28;20222;-78
2023/02/05 04:44:17;;;;;;;15.90;10.63;;;9.80;99.90;;;;;;5051702;28;20641;-78
2023/02/05 04:46:43;;;;;;;17.30;10.03;;;9.90;99.90;;;;;;5049367;28;20595;-78
2023/02/05 04:49:08;;;;;;;17.17;10.53;;;9.80;99.90;;;;;;5050338;28;20192;-78
2023/02/05 04:51:34;;;;;;;15.70;9.30;;;9.90;99.90;;;;;;5049805;28;20184;-78
2023/02/05 04:54:00;;;;;;;16.90;9.67;;;9.90;99.90;;;;;;5050037;28;20188;-78
2023/02/05 04:56:26;;;;;;;15.90;9.82;;;9.90;99.90;;;;;;5050117;28;20269;-78
2023/02/05 04:58:52;;;;;;;17.63;10.27;;;9.90;99.90;;;;;;5033762;28;20232;-78
2023/02/05 05:01:20;;;;;;;18.43;10.70;;;9.90;99.90;;;;;;5049583;28;20165;-78
2023/02/05 05:03:46;;;;;;;15.10;9.98;;;9.90;99.90;;;;;;5051362;28;20196;-78
2023/02/05 05:06:13;;;;;;;20.23;10.32;;;9.90;99.90;;;;;;5050135;28;20197;-78
2023/02/05 05:08:39;;;;;;;17.15;9.95;;;9.90;99.90;;;;;;5049262;28;20288;-78
2023/02/05 05:11:07;;;;;;;19.53;11.00;;;9.90;99.90;;;;;;5053272;28;20260;-77
2023/02/05 05:13:34;;;;;;;21.70;11.85;;;9.90;99.90;;;;;;5058873;28;20180;-78
2023/02/05 05:16:00;;;;;;;19.60;11.48;;;9.90;99.90;;;;;;5057861;28;20231;-78
2023/02/05 05:18:26;;;;;;;17.80;11.82;;;9.80;99.90;;;;;;5037318;28;20272;-78
2023/02/05 05:20:52;;;;;;;20.03;12.00;;;9.80;99.90;;;;;;5054902;28;20201;-78
2023/02/05 05:23:18;;;;;;;18.53;11.60;;;9.80;99.90;;;;;;5050929;28;20646;-78
2023/02/05 05:25:45;;;;;;;19.77;13.07;;;9.80;99.90;;;;;;5050151;28;20651;-78
2023/02/05 05:28:12;;;;;;;22.77;11.93;;;9.80;99.90;;;;;;5050398;28;20173;-78
2023/02/05 05:30:39;;;;;;;19.83;13.38;;;9.80;99.90;;;;;;5049990;28;20187;-78
2023/02/05 05:33:05;;;;;;;21.80;14.40;;;9.70;99.90;;;;;;5049189;28;20212;-78
2023/02/05 05:35:31;;;;;;;19.40;11.90;;;9.80;99.90;;;;;;5053012;28;20226;-78
2023/02/05 05:37:57;;;;;;;21.77;13.93;;;9.70;99.90;;;;;;5048520;28;20638;-78
2023/02/05 05:45:56;;;;;;;18.58;12.40;;;9.70;99.90;;;;;;5054787;28;20193;-78
2023/02/05 05:48:22;;;;;;;21.83;13.00;;;9.70;99.90;;;;;;5053241;28;20184;-78
2023/02/05 05:50:48;;;;;;;24.47;14.30;;;9.70;99.90;;;;;;5053188;28;20271;-78
2023/02/05 05:53:14;;;;;;;22.60;15.37;;;9.70;99.90;;;;;;5052627;28;20265;-78
2023/02/05 05:55:40;;;;;;;24.60;14.53;;;9.70;99.90;;;;;;5053087;28;20181;-78
2023/02/05 05:58:06;;;;;;;22.00;12.65;;;9.70;99.90;;;;;;5053900;28;20619;-78
2023/02/05 06:00:32;;;;;;;24.90;15.18;;;9.70;99.90;;;;;;5054129;28;20230;-78
2023/02/05 06:02:58;;;;;;;20.80;14.70;;;9.70;99.90;;;;;;5052812;28;20243;-78
2023/02/05 06:05:24;;;;;;;25.23;14.00;;;9.70;99.90;;;;;;5054251;28;20571;-78
2023/02/05 06:07:49;;;;;;;19.73;14.03;;;9.80;99.90;;;;;;5052360;28;20211;-78
2023/02/05 06:10:15;;;;;;;23.83;14.87;;;9.70;99.90;;;;;;5052959;28;20183;-78
2023/02/05 06:12:41;;;;;;;27.13;16.07;;;9.80;99.90;;;;;;5055910;28;20200;-78
2023/02/05 06:15:07;;;;;;;26.00;17.00;;;9.80;99.90;;;;;;5053681;28;20275;-78
2023/02/05 06:17:33;;;;;;;27.17;15.95;;;9.80;99.90;;;;;;5053725;28;20593;-78
2023/02/05 06:19:58;;;;;;;28.23;17.17;;;9.80;99.90;;;;;;5036480;28;20172;-77
2023/02/05 06:22:24;;;;;;;30.33;19.23;;;9.80;99.90;;;;;;5053863;28;20161;-77
2023/02/05 06:24:50;;;;;;;28.20;15.50;;;9.80;99.90;;;;;;5054352;28;20674;-77
2023/02/05 06:27:15;;;;;;;26.33;15.30;;;9.80;99.90;;;;;;5052088;28;20295;-78
2023/02/05 06:29:41;;;;;;;22.37;14.50;;;9.80;99.90;;;;;;5053124;28;20189;-77
2023/02/05 06:32:07;;;;;;;23.30;16.67;;;9.80;99.90;;;;;;5051944;28;20239;-77
2023/02/05 06:34:32;;;;;;;22.60;15.30;;;9.80;99.90;;;;;;5052784;28;20171;-77
2023/02/05 06:36:58;;;;;;;24.20;16.30;;;9.80;99.90;;;;;;5034691;28;20657;-77
2023/02/05 06:39:24;;;;;;;23.23;15.83;;;9.80;99.90;;;;;;5053327;28;20704;-77
2023/02/05 06:41:49;;;;;;;24.90;16.20;;;9.80;99.90;;;;;;5051882;28;20652;-77
2023/02/05 06:44:15;;;;;;;23.70;15.73;;;9.80;99.90;;;;;;5052285;28;20169;-77
2023/02/05 06:46:41;;;;;;;22.90;15.00;;;9.80;99.90;;;;;;5051382;28;20197;-77
2023/02/05 06:49:06;;;;;;;26.90;15.63;;;9.80;99.90;;;;;;5054638;28;20190;-77
2023/02/05 06:51:32;;;;;;;23.30;16.57;;;9.70;99.90;;;;;;5052103;28;20172;-77
2023/02/05 06:53:59;;;;;;;25.17;17.80;;;9.70;99.90;;;;;;5052034;28;20180;-77
2023/02/05 06:56:25;;;;;;;25.45;16.95;;;9.70;99.90;;;;;;5051141;28;20232;-77
2023/02/05 06:58:50;;;;;;;24.30;16.90;;;9.70;99.90;;;;;;5052933;28;20240;-76
2023/02/05 07:01:16;;;;;;;24.23;17.13;;;9.70;99.90;;;;;;5051665;28;20261;-76
2023/02/05 07:03:42;;;;;;;21.50;16.03;;;9.70;99.90;;;;;;5051823;28;20169;-76
2023/02/05 07:06:08;;;;;;;25.03;15.27;;;9.70;99.90;;;;;;5051564;28;20181;-76
2023/02/05 07:08:34;;;;;;;22.00;16.75;;;9.70;99.90;;;;;;5051111;28;20176;-76
2023/02/05 07:11:00;;;;;;;21.10;15.97;;;9.70;99.90;;;;;;5051671;28;20223;-76
2023/02/05 07:13:29;;;;;;;20.20;14.65;;;9.70;99.90;;;;;;5052578;28;20169;-78
2023/02/05 07:15:54;;;;;;;21.77;15.30;;;9.70;99.90;;;;;;5051588;28;20258;-78
2023/02/05 07:18:20;;;;;;;24.60;16.33;;;9.70;99.90;;;;;;5051176;28;20795;-78
2023/02/05 07:20:47;;;;;;;22.17;16.57;;;9.80;99.90;;;;;;5052817;28;20223;-78
2023/02/05 07:23:12;;;;;;;26.05;17.48;;;9.70;99.90;;;;;;5052768;28;20187;-78
2023/02/05 07:25:38;;;;;;;28.47;17.93;;;9.80;99.90;;;;;;5053460;28;20252;-77
2023/02/05 07:28:05;;;;;;;21.65;15.85;;;9.80;99.90;;;;;;5052461;28;20599;-77
2023/02/05 07:30:31;;;;;;;21.17;15.07;;;9.80;99.90;;;;;;5051451;28;20208;-77
2023/02/05 07:32:59;;;;;;;21.30;14.90;;;9.80;99.90;;;;;;5053498;28;20173;-77
2023/02/05 07:35:25;;;;;;;21.42;15.20;;;9.80;99.90;;;;;;5035390;28;20608;-77
2023/02/05 07:37:51;;;;;;;23.13;15.87;;;9.80;99.90;;;;;;5053062;28;20220;-77
2023/02/05 07:40:16;;;;;;;25.07;17.23;;;9.80;99.90;;;;;;5054835;28;20947;-77
2023/02/05 07:42:42;;;;;;;22.93;16.90;;;9.80;99.90;;;;;;5036364;28;20165;-77
2023/02/05 07:45:08;;;;;;;22.10;14.70;;;9.80;99.90;;;;;;5053087;28;20583;-77
2023/02/05 07:47:34;;;;;;;20.97;14.50;;;9.80;99.90;;;;;;5051180;28;20555;-77
2023/02/05 07:50:00;;;;;;;20.20;14.30;;;9.70;99.90;;;;;;5052754;28;20579;-76
2023/02/05 07:52:25;;;;;;;20.35;15.20;;;9.70;99.90;;;;;;5052307;28;20633;-76
2023/02/05 07:54:51;;;;;;;22.87;14.50;;;9.70;99.90;;;;;;5050830;28;20271;-76
2023/02/05 07:57:17;;;;;;;22.27;14.90;;;9.70;99.90;;;;;;5051894;28;20228;-77
2023/02/05 07:59:43;;;;;;;21.50;15.70;;;9.70;99.90;;;;;;5052352;28;20629;-76
2023/02/05 08:02:10;;;;;;;18.23;14.00;;;9.60;99.90;;;;;;5051940;28;20173;-77
2023/02/05 08:04:35;;;;;;;20.58;14.95;;;9.70;99.90;;;;;;5053252;28;20181;-76
2023/02/05 08:07:01;;;;;;;19.57;14.37;;;9.60;99.90;;;;;;5050598;28;20193;-76
2023/02/05 08:09:27;;;;;;;24.17;14.90;;;9.60;99.90;;;;;;5052295;28;20207;-76
2023/02/05 08:11:53;;;;;;;17.73;13.20;;;9.60;99.90;;;;;;5034155;28;20176;-77
2023/02/05 08:14:18;;;;;;;20.07;14.53;;;9.60;99.90;;;;;;5053155;28;20272;-77
2023/02/05 08:16:44;;;;;;;21.00;17.10;;;9.60;99.90;;;;;;5051797;28;20242;-77
2023/02/05 08:19:17;;;;;;;23.83;15.23;;;9.60;99.90;;;;;;5051724;28;20295;-77
2023/02/05 08:21:43;;;;;;;20.88;15.52;;;9.60;99.90;;;;;;5063665;28;20177;-77
2023/02/05 08:24:09;;;;;;;16.23;12.43;;;9.60;99.90;;;;;;5073076;28;20207;-77
2023/02/05 08:26:35;;;;;;;21.37;14.87;;;9.60;99.90;;;;;;5072164;28;20177;-78
2023/02/05 08:29:02;;;;;;;23.00;15.13;;;9.60;99.90;;;;;;5071355;28;20584;-77
2023/02/05 08:31:27;;;;;;;20.42;14.60;;;9.50;99.90;;;;;;5073344;28;20196;-77
2023/02/05 08:33:55;;;;;;;18.53;13.37;;;9.50;99.90;;;;;;5071799;28;20145;-77
2023/02/05 08:40:10;;;;;;;18.35;13.57;;;9.50;99.90;;;;;;5056647;28;20231;-77
2023/02/05 08:42:35;;;;;;;17.70;14.30;;;9.50;99.90;;;;;;5058922;28;20185;-78
2023/02/05 08:45:02;;;;;;;17.10;13.10;;;9.50;99.90;;;;;;5044755;28;20181;-77
2023/02/05 08:47:59;;;;;;;17.20;12.88;;;9.50;99.90;;;;;;5055737;28;20215;-77
2023/02/05 08:50:24;;;;;;;20.55;13.45;;;9.50;99.90;;;;;;5057170;28;20169;-77
2023/02/05 08:52:50;;;;;;;17.50;13.20;;;9.50;99.90;;;;;;5061411;28;20180;-77
2023/02/05 08:55:17;;;;;;;15.37;12.00;;;9.50;99.90;;;;;;5065895;28;20177;-76
2023/02/05 08:57:43;;;;;;;15.35;11.30;;;9.40;99.90;;;;;;5067196;28;20270;-76
2023/02/05 09:00:09;;;;;;;15.07;11.40;;;9.40;99.90;;;;;;5057637;28;20192;-76
2023/02/05 09:02:35;;;;;;;11.70;10.45;;;9.40;99.90;;;;;;5055394;28;20590;-75
2023/02/05 09:05:01;;;;;;;12.83;10.60;;;9.40;99.90;;;;;;5050459;28;20161;-76
2023/02/05 09:07:26;;;;;;;14.00;10.30;;;9.40;99.90;;;;;;5051274;28;20189;-77
2023/02/05 09:09:52;;;;;;;10.97;7.67;;;9.40;99.90;;;;;;5033773;28;20176;-76
2023/02/05 09:12:18;;;;;;;5.93;4.63;;;9.40;99.90;;;;;;5050780;28;20169;-76
2023/02/05 09:14:43;;;;;;;6.77;4.97;;;9.30;99.90;;;;;;5033795;28;20188;-77
2023/02/05 09:17:13;;;;;;;6.03;3.80;;;9.20;99.90;;;;;;5053173;28;20205;-77
2023/02/05 09:19:39;;;;;;;3.63;3.13;;;9.20;99.90;;;;;;5050996;28;20274;-77
2023/02/05 09:22:07;;;;;;;3.67;2.33;;;9.20;99.90;;;;;;5054314;28;20700;-76
2023/02/05 09:24:33;;;;;;;3.97;2.42;;;9.10;99.90;;;;;;5055932;28;20188;-77
2023/02/05 09:26:58;;;;;;;2.63;1.67;;;9.00;99.90;;;;;;5039588;28;20193;-76
2023/02/05 09:29:24;;;;;;;3.40;1.90;;;9.00;99.90;;;;;;5055043;28;20222;-76
2023/02/05 09:31:50;;;;;;;2.90;2.20;;;8.90;99.90;;;;;;5053920;28;20169;-77
2023/02/05 09:34:16;;;;;;;2.60;1.75;;;8.90;99.90;;;;;;5065942;28;20609;-75
2023/02/05 09:36:41;;;;;;;3.70;1.43;;;8.90;99.90;;;;;;5061849;28;20287;-76
2023/02/05 09:39:08;;;;;;;4.73;1.60;;;8.80;99.90;;;;;;5053585;28;20235;-77
2023/02/05 09:42:03;;;;;;;1.83;1.00;;;8.80;99.90;;;;;;5054465;28;20576;-76
2023/02/05 09:44:44;;;;;;;3.88;1.40;;;8.80;99.90;;;;;;5053654;28;20176;-76
2023/02/05 09:47:25;;;;;;;2.20;1.30;;;8.80;99.90;;;;;;5052486;28;20196;-76
2023/02/05 09:50:13;;;;;;;2.72;1.35;;;8.70;99.90;;;;;;5053521;28;20173;-76
2023/02/05 09:52:43;;;;;;;4.05;1.17;;;8.70;99.90;;;;;;5053949;28;20202;-77
2023/02/05 09:55:27;;;;;;;1.98;0.90;;;8.70;99.90;;;;;;5073951;28;20176;-77
2023/02/05 09:57:59;;;;;;;6.07;1.52;;;8.70;99.90;;;;;;5067073;28;20235;-76
2023/02/05 10:00:35;;;;;;;2.05;1.00;;;8.70;99.90;;;;;;5034510;28;20173;-77
2023/02/05 10:03:18;;;;;;;1.95;0.82;;;8.70;99.90;;;;;;5046453;28;20641;-77
2023/02/05 10:06:12;;;;;;;2.50;0.80;;;8.80;99.90;;;;;;5035748;28;20263;-77
2023/02/05 10:09:11;;;;;;;2.95;1.58;;;8.80;99.90;;;;;;5068613;28;20263;-77
2023/02/05 10:12:02;;;;;;;3.58;1.10;;;8.80;99.90;;;;;;5051008;28;20173;-77
2023/02/05 10:14:45;;;;;;;3.88;0.90;;;8.80;99.90;;;;;;5053950;28;20199;-77
2023/02/05 10:17:20;;;;;;;4.60;1.55;;;8.80;99.90;;;;;;5053645;28;20197;-76
2023/02/05 10:19:58;;;;;;;1.95;0.70;;;8.80;99.90;;;;;;5050942;28;20287;-77
2023/02/05 10:22:45;;;;;;;2.35;0.80;;;8.80;99.90;;;;;;5051769;28;20179;-77
2023/02/05 10:25:41;;;;;;;3.90;0.70;;;8.70;99.90;;;;;;5034194;28;20254;-76
2023/02/05 10:28:29;;;;;;;2.47;0.80;;;8.80;99.90;;;;;;5032115;28;20201;-76
2023/02/05 10:31:16;;;;;;;5.60;0.95;;;8.80;99.90;;;;;;5032576;28;20178;-76
2023/02/05 10:33:57;;;;;;;3.58;0.73;;;8.80;99.90;;;;;;5035985;28;20196;-77
2023/02/05 10:36:25;;;;;;;2.75;0.70;;;8.80;99.90;;;;;;5051449;28;20267;-77
2023/02/05 10:38:54;;;;;;;3.45;0.60;;;8.80;99.90;;;;;;5054101;28;20258;-77
2023/02/05 10:41:41;;;;;;;7.40;0.90;;;8.80;99.90;;;;;;5052297;28;20173;-76
2023/02/05 10:44:29;;;;;;;2.70;0.80;;;8.80;99.90;;;;;;5053605;28;20243;-76
2023/02/05 10:47:06;;;;;;;3.97;1.13;;;8.80;99.90;;;;;;5053457;28;20189;-77
2023/02/05 10:49:56;;;;;;;3.42;1.48;;;8.80;99.90;;;;;;5049757;28;20191;-77
2023/02/05 10:52:22;;;;;;;3.83;0.90;;;8.80;99.90;;;;;;5052085;28;20173;-76
2023/02/05 10:54:49;;;;;;;8.00;1.53;;;8.80;99.90;;;;;;5053221;28;20173;-76
2023/02/05 10:57:18;;;;;;;6.70;1.20;;;8.80;99.90;;;;;;5052478;28;20615;-77
2023/02/05 10:59:54;;;;;;;6.45;1.40;;;8.90;99.90;;;;;;5033396;28;20291;-77
2023/02/05 11:02:22;;;;;;;5.57;1.02;;;8.90;99.90;;;;;;5036247;28;20177;-76
2023/02/05 11:04:57;;;;;;;2.90;0.80;;;8.90;99.90;;;;;;5022862;28;20178;-75
2023/02/05 11:07:45;;;;;;;2.50;0.68;;;9.00;99.90;;;;;;5051720;28;20193;-75
2023/02/05 11:10:17;;;;;;;6.45;1.13;;;9.00;99.90;;;;;;5054987;28;20634;-75
2023/02/05 11:12:45;;;;;;;3.22;0.90;;;9.00;99.90;;;;;;5052353;28;20176;-75
2023/02/05 11:15:26;;;;;;;5.63;1.13;;;9.10;99.90;;;;;;5053513;28;20193;-75
2023/02/05 11:18:04;;;;;;;5.60;1.73;;;9.10;99.90;;;;;;5051905;28;20208;-75
2023/02/05 11:20:38;;;;;;;2.60;0.88;;;9.10;99.90;;;;;;5052840;28;20181;-75
2023/02/05 11:23:07;;;;;;;3.70;0.85;;;9.10;99.90;;;;;;5051550;28;20172;-76
2023/02/05 11:25:33;;;;;;;6.00;1.08;;;9.10;99.90;;;;;;5053280;28;20165;-76
2023/02/05 11:28:03;;;;;;;6.80;0.90;;;9.20;99.90;;;;;;5052151;28;20180;-75
2023/02/05 11:30:34;;;;;;;3.92;1.33;;;9.10;99.90;;;;;;5052657;28;20173;-76
2023/02/05 11:33:23;;;;;;;5.15;1.20;;;9.10;99.90;;;;;;5051822;28;20256;-76
2023/02/05 11:35:59;;;;;;;6.00;1.05;;;9.10;99.90;;;;;;5052201;28;20201;-75
2023/02/05 11:38:36;;;;;;;3.10;1.00;;;9.10;99.90;;;;;;5052401;28;20207;-77
2023/02/05 11:41:05;;;;;;;7.00;1.98;;;9.10;99.90;;;;;;5051146;28;20268;-77
2023/02/05 11:43:45;;;;;;;9.70;1.63;;;9.10;99.90;;;;;;5053194;28;20169;-77
2023/02/05 11:46:18;;;;;;;7.43;1.63;;;9.10;99.90;;;;;;5052835;28;20246;-77
2023/02/05 11:48:55;;;;;;;9.05;2.58;;;9.10;99.90;;;;;;5039935;28;20239;-78
2023/02/05 11:51:43;;;;;;;6.38;1.17;;;9.10;99.90;;;;;;5054362;28;20172;-78
2023/02/05 11:54:31;;;;;;;8.95;1.63;;;9.10;99.90;;;;;;5053686;28;20272;-78
2023/02/05 11:57:12;;;;;;;5.60;1.27;;;9.00;99.90;;;;;;5051795;28;20284;-78
2023/02/05 11:59:39;;;;;;;6.07;1.10;;;9.00;99.90;;;;;;5035534;28;20212;-78
2023/02/05 12:02:35;;;;;;;4.40;1.17;;;9.00;99.90;;;;;;5052317;28;20191;-77
2023/02/05 12:05:08;;;;;;;6.03;1.25;;;9.00;99.90;;;;;;5024457;28;20191;-79
2023/02/05 12:08:00;;;;;;;7.13;1.25;;;9.00;99.90;;;;;;5051978;28;20197;-78
2023/02/05 12:10:42;;;;;;;7.35;1.20;;;9.00;99.90;;;;;;4984680;28;20261;-77
2023/02/05 12:13:17;;;;;;;8.18;2.03;;;9.00;99.90;;;;;;5034752;28;20569;-77
2023/02/05 12:16:09;;;;;;;7.25;1.42;;;9.00;99.90;;;;;;5036988;28;20184;-76
2023/02/05 12:18:57;;;;;;;5.43;1.45;;;9.00;99.90;;;;;;5031922;28;20219;-77
2023/02/05 12:21:35;;;;;;;5.20;1.67;;;9.00;99.90;;;;;;5018725;28;20231;-78
2023/02/05 12:24:29;;;;;;;7.43;2.40;;;9.00;99.90;;;;;;5054053;28;20183;-78
2023/02/05 12:27:36;;;;;;;9.52;1.38;;;9.00;99.90;;;;;;5042862;28;20543;-79
2023/02/05 12:30:10;;;;;;;8.73;1.42;;;8.90;99.90;;;;;;5034890;28;20184;-80
2023/02/05 12:32:46;;;;;;;4.03;1.17;;;8.90;99.90;;;;;;5050144;28;20176;-79
2023/02/05 12:35:27;;;;;;;13.68;2.15;;;8.90;99.90;;;;;;5044425;28;20173;-80
2023/02/05 12:38:12;;;;;;;9.20;1.85;;;8.90;99.90;;;;;;5043445;28;20662;-78
2023/02/05 12:41:04;;;;;;;7.03;2.25;;;8.90;99.90;;;;;;5049577;28;20173;-78
2023/02/05 12:43:46;;;;;;;7.68;2.30;;;8.90;99.90;;;;;;5050701;28;20177;-78
2023/02/05 12:46:30;;;;;;;6.32;3.95;;;8.90;99.90;;;;;;5048704;28;20193;-78
2023/02/05 12:49:04;;;;;;;10.65;3.20;;;8.80;99.90;;;;;;5051225;28;20202;-78
2023/02/05 12:51:49;;;;;;;9.25;3.25;;;8.80;99.90;;;;;;5050350;28;20180;-78
2023/02/05 12:54:26;;;;;;;8.95;3.20;;;8.80;99.90;;;;;;5049477;28;20779;-79
2023/02/05 12:56:51;;;;;;;8.90;2.90;;;8.80;99.90;;;;;;5048332;28;20553;-78
2023/02/05 12:59:38;;;;;;;6.83;4.23;;;8.80;99.90;;;;;;5032757;28;20192;-78
2023/02/05 13:02:19;;;;;;;7.28;2.67;;;8.80;99.90;;;;;;5049182;28;20238;-78
2023/02/05 13:04:51;;;;;;;5.15;2.50;;;8.80;99.90;;;;;;5059553;28;20179;-78
2023/02/05 13:07:31;;;;;;;6.30;2.90;;;8.80;99.90;;;;;;5049850;28;20284;-80
2023/02/05 13:10:04;;;;;;;5.22;3.03;;;8.80;99.90;;;;;;5052175;28;20176;-78
2023/02/05 13:12:40;;;;;;;9.02;3.28;;;8.80;99.90;;;;;;5049380;28;20549;-77